createdAt,value
2023-04-05T00:01:49.693Z,77.99
2023-04-05T00:07:11.559Z,79.67
2023-04-05T00:12:33.425Z,80.35
2023-04-05T00:17:56.125Z,78.51
2023-04-05T00:23:18.318Z,78.83
2023-04-05T00:28:40.336Z,78.74
2023-04-05T00:34:02.480Z,80.74
2023-04-05T00:39:24.425Z,80.61
2023-04-05T00:44:46.291Z,82.44
2023-04-05T00:50:09.783Z,82.58
2023-04-05T00:55:31.747Z,84.57
2023-04-05T01:01:21.230Z,83.70
2023-04-05T01:06:48.571Z,84.92
2023-04-05T01:12:12.730Z,84.14
2023-04-05T01:17:34.712Z,85.51
2023-04-05T01:23:32.057Z,86.70
2023-04-05T01:28:56.564Z,87.50
2023-04-05T01:34:42.750Z,87.87
2023-04-05T01:40:05.505Z,85.13
2023-04-05T01:45:27.471Z,86.78
2023-04-05T01:50:49.372Z,86.19
2023-04-05T01:56:11.215Z,86.17
2023-04-05T02:01:33.184Z,85.81
2023-04-05T02:06:55.175Z,86.58
2023-04-05T02:12:17.050Z,86.87
2023-04-05T02:17:39.050Z,87.14
2023-04-05T02:23:00.963Z,87.95
2023-04-05T02:28:22.817Z,87.26
2023-04-05T02:33:44.644Z,87.54
2023-04-05T02:39:06.531Z,87.19
2023-04-05T02:44:28.481Z,87.28
2023-04-05T02:49:50.446Z,86.78
2023-04-05T02:55:12.339Z,88.07
2023-04-05T03:00:34.827Z,86.80
2023-04-05T03:06:02.374Z,85.67
2023-04-05T03:11:24.262Z,86.34
2023-04-05T03:16:46.147Z,85.62
2023-04-05T03:22:08.264Z,85.91
2023-04-05T03:27:30.136Z,86.31
2023-04-05T03:32:52.044Z,85.86
2023-04-05T03:38:14.213Z,85.79
2023-04-05T03:43:36.060Z,85.56
2023-04-05T03:49:00.399Z,85.19
2023-04-05T03:54:22.296Z,85.40
2023-04-05T03:59:44.211Z,85.20
2023-04-05T04:05:06.428Z,85.48
2023-04-05T04:10:28.426Z,84.61
2023-04-05T04:15:50.277Z,84.38
2023-04-05T04:21:12.126Z,85.43
2023-04-05T04:26:33.965Z,85.45
2023-04-05T04:31:55.896Z,84.91
2023-04-05T04:37:18.183Z,84.36
2023-04-05T04:42:40.058Z,84.32
2023-04-05T04:48:01.949Z,83.39
2023-04-05T04:53:24.392Z,83.58
2023-04-05T04:58:46.437Z,83.12
2023-04-05T05:04:08.328Z,84.80
2023-04-05T05:09:30.271Z,83.11
2023-04-05T05:14:52.468Z,82.62
2023-04-05T05:20:14.359Z,82.63
2023-04-05T05:25:37.318Z,80.93
2023-04-05T05:31:00.295Z,81.16
2023-04-05T05:36:22.395Z,80.35
2023-04-05T05:41:45.119Z,79.54
2023-04-05T05:47:07.060Z,80.29
2023-04-05T05:52:28.984Z,77.12
2023-04-05T05:57:50.894Z,77.46
2023-04-05T06:03:12.872Z,76.50
2023-04-05T06:08:34.997Z,74.58
2023-04-05T06:13:56.916Z,73.03
2023-04-05T06:19:18.962Z,70.24
2023-04-05T06:24:40.802Z,72.43
2023-04-05T06:30:03.604Z,72.60
2023-04-05T06:35:25.944Z,72.11
2023-04-05T06:40:49.056Z,69.89
2023-04-05T06:46:10.897Z,69.33
2023-04-05T06:51:32.747Z,69.92
2023-04-05T06:56:54.552Z,69.06
2023-04-05T07:02:16.429Z,70.15
2023-04-05T07:07:42.499Z,68.94
2023-04-05T07:13:04.295Z,66.07
2023-04-05T07:18:26.167Z,67.00
2023-04-05T07:23:48.073Z,66.44
2023-04-05T07:29:11.104Z,64.82
2023-04-05T07:34:33.906Z,63.54
2023-04-05T07:39:55.879Z,62.79
2023-04-05T07:45:17.821Z,63.89
2023-04-05T07:50:39.955Z,62.89
2023-04-05T07:56:09.426Z,62.38
2023-04-05T08:01:31.225Z,59.91
2023-04-05T08:06:53.054Z,60.48
2023-04-05T08:12:14.871Z,60.10
2023-04-05T08:17:36.749Z,58.69
2023-04-05T08:22:58.694Z,58.50
2023-04-05T08:28:20.823Z,58.92
2023-04-05T08:33:42.646Z,57.88
2023-04-05T08:39:04.466Z,57.49
2023-04-05T08:44:26.950Z,55.62
2023-04-05T08:49:49.354Z,55.98
2023-04-05T08:55:11.204Z,56.20
2023-04-05T09:00:33.174Z,55.86
2023-04-05T09:05:58.374Z,55.18
2023-04-05T09:11:20.382Z,54.28
2023-04-05T09:16:42.540Z,53.40
2023-04-05T09:22:04.395Z,52.19
2023-04-05T09:27:26.247Z,52.46
2023-04-05T09:32:48.127Z,51.26
2023-04-05T09:38:10.303Z,50.92
2023-04-05T09:43:39.836Z,49.00
2023-04-05T09:49:01.746Z,49.03
2023-04-05T09:54:23.608Z,49.25
2023-04-05T09:59:46.656Z,48.85
2023-04-05T10:05:10.392Z,48.18
2023-04-05T10:10:38.051Z,48.51
2023-04-05T10:16:01.979Z,48.64
2023-04-05T10:21:33.661Z,47.13
2023-04-05T10:27:04.849Z,46.30
2023-04-05T10:32:52.958Z,44.30
2023-04-05T10:38:29.013Z,44.08
2023-04-05T10:43:53.256Z,43.63
2023-04-05T10:49:37.082Z,43.18
2023-04-05T10:54:59.565Z,41.76
2023-04-05T11:00:23.344Z,40.48
2023-04-05T11:05:45.288Z,42.08
2023-04-05T11:11:07.388Z,43.13
2023-04-05T11:16:39.831Z,43.44
2023-04-05T11:22:02.005Z,44.05
2023-04-05T11:27:32.415Z,44.43
2023-04-05T11:32:54.288Z,44.37
2023-04-05T11:38:22.318Z,44.39
2023-04-05T11:43:45.106Z,45.81
2023-04-05T11:49:07.584Z,44.35
2023-04-05T11:54:33.537Z,44.60
2023-04-05T11:59:55.429Z,44.08
2023-04-05T12:05:17.331Z,45.12
2023-04-05T12:10:39.306Z,43.99
2023-04-05T12:16:02.858Z,44.56
2023-04-05T12:21:25.749Z,44.00
2023-04-05T12:26:47.578Z,45.31
2023-04-05T12:32:10.994Z,43.72
2023-04-05T12:37:34.967Z,42.83
2023-04-05T12:43:07.436Z,41.23
2023-04-05T12:48:29.318Z,42.78
2023-04-05T12:53:51.151Z,42.26
2023-04-05T12:59:13.031Z,41.13
2023-04-05T13:04:34.985Z,41.43
2023-04-05T13:09:56.815Z,40.76
2023-04-05T13:15:19.236Z,39.66
2023-04-05T13:20:42.561Z,39.89
2023-04-05T13:26:05.612Z,40.09
2023-04-05T13:31:27.556Z,41.14
2023-04-05T13:36:49.496Z,40.91
2023-04-05T13:42:11.402Z,42.11
2023-04-05T13:47:33.201Z,42.43
2023-04-05T13:52:55.083Z,43.21
2023-04-05T13:58:16.974Z,43.13
2023-04-05T14:03:38.950Z,43.50
2023-04-05T14:09:00.836Z,44.58
2023-04-05T14:14:22.677Z,44.20
2023-04-05T14:19:44.555Z,44.98
2023-04-05T14:25:06.574Z,44.61
2023-04-05T14:30:28.536Z,44.98
2023-04-05T14:35:50.484Z,43.52
2023-04-05T14:41:12.376Z,44.08
2023-04-05T14:46:34.302Z,44.23
2023-04-05T14:51:56.166Z,45.06
2023-04-05T14:57:18.109Z,44.56
2023-04-05T15:02:40.146Z,45.13
2023-04-05T15:08:02.403Z,45.39
2023-04-05T15:13:24.360Z,44.47
2023-04-05T15:18:46.245Z,44.43
2023-04-05T15:24:08.124Z,44.18
2023-04-05T15:29:31.411Z,43.09
2023-04-05T15:34:53.251Z,43.90
2023-04-05T15:40:15.208Z,45.03
2023-04-05T15:45:37.058Z,45.14
2023-04-05T15:50:58.894Z,45.22
2023-04-05T15:56:20.897Z,44.87
2023-04-05T16:01:42.860Z,44.82
2023-04-05T16:07:05.007Z,45.44
2023-04-05T16:12:26.897Z,46.22
2023-04-05T16:17:48.770Z,46.88
2023-04-05T16:23:10.791Z,47.38
2023-04-05T16:28:32.721Z,47.39
2023-04-05T16:33:54.649Z,47.93
2023-04-05T16:39:16.486Z,47.96
2023-04-05T16:44:38.359Z,49.08
2023-04-05T16:50:00.312Z,49.02
2023-04-05T16:55:22.147Z,48.71
2023-04-05T17:00:44.052Z,49.05
2023-04-05T17:06:06.107Z,49.42
2023-04-05T17:11:28.253Z,49.53
2023-04-05T17:16:50.232Z,49.70
2023-04-05T17:22:13.599Z,49.56
2023-04-05T17:27:35.485Z,49.73
2023-04-05T17:32:57.404Z,49.69
2023-04-05T17:38:19.257Z,50.41
2023-04-05T17:43:41.059Z,50.64
2023-04-05T17:49:03.210Z,49.42
2023-04-05T17:54:25.163Z,49.87
2023-04-05T17:59:46.999Z,49.31
2023-04-05T18:05:09.144Z,50.56
2023-04-05T18:10:30.990Z,50.68
2023-04-05T18:15:59.561Z,49.90
2023-04-05T18:21:21.394Z,51.38
2023-04-05T18:26:43.480Z,51.32
2023-04-05T18:32:07.392Z,51.12
2023-04-05T18:37:29.268Z,52.46
2023-04-05T18:42:51.084Z,52.26
2023-04-05T18:48:13.043Z,52.67
2023-04-05T18:53:34.860Z,52.55
2023-04-05T18:58:56.911Z,52.88
2023-04-05T19:04:18.839Z,52.84
2023-04-05T19:09:40.690Z,53.92
2023-04-05T19:15:02.740Z,53.87
2023-04-05T19:20:24.655Z,54.12
2023-04-05T19:25:46.682Z,53.41
2023-04-05T19:31:10.178Z,53.48
2023-04-05T19:36:35.876Z,53.55
2023-04-05T19:41:58.141Z,53.31
2023-04-05T19:47:21.191Z,53.44
2023-04-05T19:52:49.444Z,53.18
2023-04-05T19:58:11.670Z,52.92
2023-04-05T20:03:39.072Z,52.95
2023-04-05T20:09:05.399Z,52.21
2023-04-05T20:14:30.052Z,52.61
2023-04-05T20:19:57.047Z,52.65
2023-04-05T20:25:39.078Z,52.20
2023-04-05T20:31:16.193Z,51.98
2023-04-05T20:36:44.859Z,52.11
2023-04-05T20:42:06.727Z,52.00
2023-04-05T20:47:29.362Z,52.29
2023-04-05T20:52:51.195Z,51.56
2023-04-05T20:58:13.009Z,51.60
2023-04-05T21:03:37.528Z,51.76
2023-04-05T21:08:59.579Z,51.23
2023-04-05T21:14:21.840Z,51.85
2023-04-05T21:19:43.833Z,52.07
2023-04-05T21:25:06.196Z,52.11
2023-04-05T21:30:28.888Z,51.91
2023-04-05T21:35:50.942Z,51.58
2023-04-05T21:41:13.013Z,51.58
2023-04-05T21:46:34.879Z,51.54
2023-04-05T21:51:56.795Z,51.57
2023-04-05T21:57:18.695Z,52.04
2023-04-05T22:02:40.918Z,51.61
2023-04-05T22:08:02.830Z,52.28
2023-04-05T22:13:24.840Z,51.95
2023-04-05T22:18:46.689Z,52.29
2023-04-05T22:24:09.108Z,52.17
2023-04-05T22:29:30.994Z,52.82
2023-04-05T22:34:52.817Z,52.56
2023-04-05T22:40:14.690Z,52.63
2023-04-05T22:45:36.529Z,52.65
2023-04-05T22:50:58.430Z,52.28
2023-04-05T22:56:20.256Z,52.12
2023-04-05T23:01:42.318Z,52.15
2023-04-05T23:07:04.218Z,52.75
2023-04-05T23:12:26.093Z,52.70
2023-04-05T23:17:48.001Z,52.58
2023-04-05T23:23:09.939Z,53.36
2023-04-05T23:28:31.739Z,52.94
2023-04-05T23:33:54.575Z,52.82
2023-04-05T23:39:16.447Z,53.12
2023-04-05T23:44:38.344Z,53.62
2023-04-05T23:50:00.224Z,52.99
2023-04-05T23:55:22.041Z,53.03
